createdAt,value
2022-08-06T00:00:07.633Z,22.22
2022-08-06T00:02:31.243Z,22.17
2022-08-06T00:05:01.133Z,21.96
2022-08-06T00:07:44.853Z,22.02
2022-08-06T00:10:16.438Z,22.36
2022-08-06T00:12:45.031Z,22.38
2022-08-06T00:15:14.884Z,22.12
2022-08-06T00:17:47.019Z,21.91
2022-08-06T00:20:25.626Z,22.05
2022-08-06T00:23:01.032Z,22.21
2022-08-06T00:25:35.865Z,22.31
2022-08-06T00:28:12.460Z,22.13
2022-08-06T00:30:40.201Z,22.05
2022-08-06T00:33:12.064Z,22.01
2022-08-06T00:35:45.317Z,21.98
2022-08-06T00:38:14.793Z,22.01
2022-08-06T00:40:50.002Z,22.44
2022-08-06T00:43:17.726Z,21.86
2022-08-06T00:45:48.501Z,21.55
2022-08-06T00:48:30.866Z,21.60
2022-08-06T00:51:04.160Z,21.56
2022-08-06T00:53:39.258Z,21.44
2022-08-06T00:56:11.442Z,21.20
2022-08-06T00:58:41.152Z,21.11
2022-08-06T01:01:17.029Z,21.11
2022-08-06T01:03:51.274Z,21.08
2022-08-06T01:06:55.272Z,21.08
2022-08-06T01:09:11.295Z,21.00
2022-08-06T01:11:39.619Z,20.99
2022-08-06T01:14:09.751Z,21.10
2022-08-06T01:16:46.776Z,21.11
2022-08-06T01:19:50.386Z,21.15
2022-08-06T01:22:44.492Z,21.22
2022-08-06T01:25:57.233Z,21.24
2022-08-06T01:28:38.611Z,21.38
2022-08-06T01:31:26.908Z,21.37
2022-08-06T01:34:20.401Z,21.47
2022-08-06T01:37:11.377Z,21.49
2022-08-06T01:39:53.962Z,21.49
2022-08-06T01:42:35.035Z,21.48
2022-08-06T01:45:06.404Z,21.54
2022-08-06T01:47:52.266Z,21.64
2022-08-06T01:50:28.659Z,21.68
2022-08-06T01:53:00.990Z,21.68
2022-08-06T01:55:56.279Z,21.57
2022-08-06T01:58:30.213Z,21.53
2022-08-06T02:01:01.840Z,21.44
2022-08-06T02:03:49.561Z,21.52
2022-08-06T02:06:29.695Z,21.58
2022-08-06T02:09:22.170Z,21.59
2022-08-06T02:12:06.574Z,21.60
2022-08-06T02:14:43.409Z,21.74
2022-08-06T02:17:15.159Z,21.86
2022-08-06T02:20:05.041Z,21.69
2022-08-06T02:22:42.386Z,21.58
2022-08-06T02:25:21.840Z,21.55
2022-08-06T02:27:59.093Z,21.57
2022-08-06T02:30:44.969Z,21.55
2022-08-06T02:33:19.120Z,21.60
2022-08-06T02:36:20.570Z,21.55
2022-08-06T02:39:12.548Z,21.47
2022-08-06T02:42:03.701Z,21.31
2022-08-06T02:44:45.902Z,21.42
2022-08-06T02:47:20.091Z,21.31
2022-08-06T02:49:57.412Z,21.29
2022-08-06T02:52:56.395Z,21.47
2022-08-06T02:55:34.272Z,21.34
2022-08-06T02:58:36.747Z,21.35
2022-08-06T03:01:11.524Z,21.16
2022-08-06T03:03:54.981Z,20.89
2022-08-06T03:06:30.898Z,20.81
2022-08-06T03:09:00.771Z,20.93
2022-08-06T03:11:32.823Z,21.19
2022-08-06T03:14:13.221Z,21.40
2022-08-06T03:16:57.741Z,21.17
2022-08-06T03:19:57.832Z,21.07
2022-08-06T03:22:18.609Z,20.93
2022-08-06T03:25:03.835Z,21.05
2022-08-06T03:27:43.100Z,20.93
2022-08-06T03:30:32.483Z,20.89
2022-08-06T03:33:28.518Z,21.00
2022-08-06T03:36:01.315Z,20.78
2022-08-06T03:38:32.504Z,20.53
2022-08-06T03:41:02.098Z,20.48
2022-08-06T03:43:56.787Z,20.39
2022-08-06T03:46:28.966Z,20.75
2022-08-06T03:49:00.470Z,20.90
2022-08-06T03:51:51.876Z,20.91
2022-08-06T03:54:30.484Z,20.75
2022-08-06T03:57:08.096Z,20.72
2022-08-06T03:59:44.000Z,20.63
2022-08-06T04:02:36.908Z,20.60
2022-08-06T04:05:17.138Z,20.51
2022-08-06T04:07:54.508Z,20.55
2022-08-06T04:10:32.982Z,20.45
2022-08-06T04:13:08.145Z,20.40
2022-08-06T04:15:54.304Z,20.47
2022-08-06T04:18:27.345Z,20.54
2022-08-06T04:21:20.731Z,20.55
2022-08-06T04:23:51.317Z,20.62
2022-08-06T04:26:28.245Z,20.76
2022-08-06T04:28:58.488Z,21.09
2022-08-06T04:32:11.609Z,21.27
2022-08-06T04:34:26.857Z,21.83
2022-08-06T04:36:56.945Z,22.07
2022-08-06T04:39:37.106Z,22.11
2022-08-06T04:42:07.558Z,22.24
2022-08-06T04:44:44.493Z,22.25
2022-08-06T04:47:15.177Z,21.92
2022-08-06T04:49:58.179Z,22.29
2022-08-06T04:52:36.288Z,22.61
2022-08-06T04:55:23.684Z,22.58
2022-08-06T04:57:57.542Z,22.69
2022-08-06T05:01:03.296Z,22.92
2022-08-06T05:04:07.736Z,23.10
2022-08-06T05:06:19.602Z,23.46
2022-08-06T05:08:53.273Z,23.72
2022-08-06T05:11:58.201Z,23.81
2022-08-06T05:14:47.593Z,23.67
2022-08-06T05:17:18.922Z,23.43
2022-08-06T05:19:57.308Z,23.49
2022-08-06T05:22:53.573Z,23.80
2022-08-06T05:25:22.396Z,24.20
2022-08-06T05:28:09.765Z,24.42
2022-08-06T05:30:54.304Z,24.19
2022-08-06T05:33:41.820Z,24.22
2022-08-06T05:36:19.841Z,24.30
2022-08-06T05:38:58.621Z,24.36
2022-08-06T05:41:30.528Z,24.50
2022-08-06T05:44:02.761Z,24.53
2022-08-06T05:46:36.458Z,24.74
2022-08-06T05:49:54.847Z,24.98
2022-08-06T05:52:13.155Z,25.35
2022-08-06T05:54:49.712Z,25.39
2022-08-06T05:57:42.458Z,25.62
2022-08-06T06:00:41.924Z,25.14
2022-08-06T06:03:07.642Z,24.91
2022-08-06T06:06:05.581Z,25.10
2022-08-06T06:08:37.288Z,25.62
2022-08-06T06:11:10.392Z,25.62
2022-08-06T06:13:59.121Z,26.18
2022-08-06T06:16:57.312Z,26.15
2022-08-06T06:19:42.260Z,26.26
2022-08-06T06:22:39.126Z,26.44
2022-08-06T06:25:23.425Z,26.56
2022-08-06T06:28:28.636Z,26.94
2022-08-06T06:31:03.445Z,27.26
2022-08-06T06:33:47.530Z,27.45
2022-08-06T06:36:34.271Z,27.38
2022-08-06T06:39:10.196Z,27.26
2022-08-06T06:42:03.166Z,27.49
2022-08-06T06:45:04.624Z,27.27
2022-08-06T06:48:22.311Z,27.39
2022-08-06T06:50:55.990Z,27.55
2022-08-06T06:54:09.023Z,27.39
2022-08-06T06:56:24.171Z,27.71
2022-08-06T06:59:16.608Z,27.92
2022-08-06T07:01:50.956Z,28.23
2022-08-06T07:04:26.995Z,28.05
2022-08-06T07:07:07.888Z,28.27
2022-08-06T07:09:53.452Z,27.97
2022-08-06T07:12:33.524Z,28.01
2022-08-06T07:15:07.853Z,28.27
2022-08-06T07:17:45.342Z,28.79
2022-08-06T07:20:32.607Z,28.69
2022-08-06T07:24:03.350Z,28.51
2022-08-06T07:25:59.573Z,28.52
2022-08-06T07:28:31.688Z,28.74
2022-08-06T07:31:08.963Z,28.48
2022-08-06T07:33:59.811Z,28.69
2022-08-06T07:36:37.978Z,29.01
2022-08-06T07:39:16.059Z,29.31
2022-08-06T07:42:07.870Z,29.11
2022-08-06T07:44:56.572Z,29.04
2022-08-06T07:47:41.225Z,29.16
2022-08-06T07:50:16.074Z,29.63
2022-08-06T07:52:45.084Z,29.80
2022-08-06T07:55:16.321Z,29.84
2022-08-06T07:57:55.553Z,30.17
2022-08-06T08:00:29.504Z,30.25
2022-08-06T08:03:43.348Z,30.28
2022-08-06T08:06:24.489Z,30.17
2022-08-06T08:09:07.768Z,30.25
2022-08-06T08:12:25.609Z,30.10
2022-08-06T08:14:31.903Z,30.53
2022-08-06T08:17:00.244Z,30.69
2022-08-06T08:19:35.296Z,30.70
2022-08-06T08:22:09.882Z,30.98
2022-08-06T08:24:41.231Z,31.79
2022-08-06T08:27:17.170Z,32.05
2022-08-06T08:29:56.804Z,32.63
2022-08-06T08:32:26.489Z,32.41
2022-08-06T08:34:56.242Z,32.88
2022-08-06T08:37:24.921Z,33.72
2022-08-06T08:39:54.901Z,34.04
2022-08-06T08:42:48.779Z,35.00
2022-08-06T08:45:23.327Z,35.37
2022-08-06T08:48:03.671Z,35.27
2022-08-06T08:50:36.815Z,35.09
2022-08-06T08:53:13.582Z,34.76
2022-08-06T08:57:11.647Z,35.75
2022-08-06T08:58:46.843Z,36.20
2022-08-06T09:01:53.278Z,36.04
2022-08-06T09:04:14.916Z,36.90
2022-08-06T09:06:50.041Z,36.18
2022-08-06T09:09:23.924Z,36.11
2022-08-06T09:12:05.125Z,36.11
2022-08-06T09:14:38.945Z,36.04
2022-08-06T09:17:12.424Z,36.55
2022-08-06T09:19:41.890Z,37.96
2022-08-06T09:22:11.917Z,37.88
2022-08-06T09:24:40.576Z,36.76
2022-08-06T09:27:47.557Z,37.54
2022-08-06T09:30:25.272Z,38.07
2022-08-06T09:33:04.070Z,37.83
2022-08-06T09:35:59.866Z,37.95
2022-08-06T09:38:29.511Z,38.31
2022-08-06T09:41:14.847Z,38.65
2022-08-06T09:44:04.387Z,37.76
2022-08-06T09:46:48.391Z,36.71
2022-08-06T09:49:45.641Z,37.29
2022-08-06T09:52:20.110Z,36.94
2022-08-06T09:54:52.854Z,37.40
2022-08-06T09:57:34.809Z,37.37
2022-08-06T10:00:04.488Z,36.66
2022-08-06T10:02:36.869Z,36.69
2022-08-06T10:05:17.931Z,36.33
2022-08-06T10:07:52.517Z,36.65
2022-08-06T10:10:44.226Z,36.70
2022-08-06T10:13:23.852Z,36.76
2022-08-06T10:16:00.958Z,36.13
2022-08-06T10:18:55.870Z,35.69
2022-08-06T10:21:33.288Z,35.29
2022-08-06T10:24:12.538Z,35.67
2022-08-06T10:26:44.622Z,36.57
2022-08-06T10:29:17.130Z,37.72
2022-08-06T10:31:44.947Z,38.24
2022-08-06T10:34:18.846Z,39.00
2022-08-06T10:36:53.055Z,38.96
2022-08-06T10:40:09.397Z,38.16
2022-08-06T10:42:23.078Z,37.92
2022-08-06T10:44:54.334Z,38.49
2022-08-06T10:48:59.030Z,38.33
2022-08-06T10:50:25.552Z,38.23
2022-08-06T10:53:03.766Z,38.04
2022-08-06T10:55:34.326Z,38.24
2022-08-06T10:58:10.742Z,38.67
2022-08-06T11:00:44.995Z,39.45
2022-08-06T11:03:51.882Z,39.53
2022-08-06T11:06:58.550Z,39.98
2022-08-06T11:09:59.854Z,40.29
2022-08-06T11:12:51.166Z,41.22
2022-08-06T11:15:22.726Z,39.91
2022-08-06T11:17:50.793Z,39.60
2022-08-06T11:20:41.079Z,39.69
2022-08-06T11:23:52.914Z,39.40
2022-08-06T11:26:05.042Z,39.03
2022-08-06T11:28:32.446Z,37.77
2022-08-06T11:31:03.434Z,38.45
2022-08-06T11:33:34.926Z,39.46
2022-08-06T11:36:09.508Z,39.30
2022-08-06T11:38:53.669Z,39.08
2022-08-06T11:41:51.125Z,38.75
2022-08-06T11:44:35.766Z,42.05
2022-08-06T11:47:30.721Z,45.63
2022-08-06T11:50:27.094Z,45.86
2022-08-06T11:52:56.509Z,44.49
2022-08-06T11:55:27.031Z,42.88
2022-08-06T11:58:21.281Z,42.06
2022-08-06T12:01:03.046Z,41.51
2022-08-06T12:03:44.788Z,41.41
2022-08-06T12:06:26.759Z,41.36
2022-08-06T12:09:35.809Z,41.45
2022-08-06T12:12:26.254Z,40.91
2022-08-06T12:14:55.388Z,40.56
2022-08-06T12:17:44.860Z,41.56
2022-08-06T12:20:33.195Z,45.34
2022-08-06T12:23:16.081Z,45.65
2022-08-06T12:25:47.697Z,43.44
2022-08-06T12:28:18.952Z,41.38
2022-08-06T12:30:58.117Z,40.53
2022-08-06T12:33:25.621Z,38.84
2022-08-06T12:35:56.519Z,38.40
2022-08-06T12:38:32.591Z,37.48
2022-08-06T12:41:10.627Z,36.61
2022-08-06T12:43:57.395Z,36.82
2022-08-06T12:46:29.387Z,36.64
2022-08-06T12:49:03.713Z,36.80
2022-08-06T12:51:33.633Z,37.72
2022-08-06T12:54:05.771Z,40.00
2022-08-06T12:56:41.856Z,40.41
2022-08-06T12:59:16.117Z,39.76
2022-08-06T13:02:07.724Z,38.89
2022-08-06T13:04:46.480Z,37.80
2022-08-06T13:07:43.073Z,38.63
2022-08-06T13:10:35.408Z,39.26
2022-08-06T13:14:12.268Z,39.55
2022-08-06T13:16:03.870Z,43.13
2022-08-06T13:18:47.544Z,43.76
2022-08-06T13:21:26.835Z,43.82
2022-08-06T13:24:01.443Z,43.16
2022-08-06T13:26:34.535Z,45.72
2022-08-06T13:30:35.835Z,47.87
2022-08-06T13:32:19.784Z,50.72
2022-08-06T13:35:17.038Z,53.20
2022-08-06T13:37:57.472Z,52.60
2022-08-06T13:40:51.833Z,52.04
2022-08-06T13:43:39.134Z,51.55
2022-08-06T13:46:19.998Z,47.00
2022-08-06T13:48:52.471Z,45.16
2022-08-06T13:51:27.525Z,44.30
2022-08-06T13:53:58.933Z,43.65
2022-08-06T13:56:29.945Z,44.26
2022-08-06T13:58:59.766Z,43.59
2022-08-06T14:01:44.209Z,42.70
2022-08-06T14:04:14.797Z,40.93
2022-08-06T14:06:46.549Z,38.86
2022-08-06T14:09:21.757Z,37.80
2022-08-06T14:12:01.256Z,37.11
2022-08-06T14:14:31.402Z,36.52
2022-08-06T14:17:02.855Z,36.21
2022-08-06T14:20:17.770Z,35.59
2022-08-06T14:22:19.934Z,35.58
2022-08-06T14:24:57.138Z,35.57
2022-08-06T14:27:24.684Z,35.78
2022-08-06T14:30:27.801Z,35.98
2022-08-06T14:32:42.164Z,36.47
2022-08-06T14:35:16.698Z,36.19
2022-08-06T14:37:52.127Z,36.16
2022-08-06T14:41:02.826Z,36.94
2022-08-06T14:43:55.838Z,39.57
2022-08-06T14:46:30.439Z,40.13
2022-08-06T14:49:09.366Z,41.56
2022-08-06T14:52:19.505Z,42.72
2022-08-06T14:54:32.313Z,40.88
2022-08-06T14:57:02.420Z,40.74
2022-08-06T14:59:48.120Z,39.09
2022-08-06T15:02:20.261Z,38.13
2022-08-06T15:04:52.266Z,36.93
2022-08-06T15:07:24.432Z,36.48
2022-08-06T15:10:04.974Z,36.03
2022-08-06T15:12:40.284Z,36.19
2022-08-06T15:15:13.677Z,35.65
2022-08-06T15:18:05.050Z,35.61
2022-08-06T15:20:29.762Z,35.35
2022-08-06T15:22:57.917Z,35.31
2022-08-06T15:25:59.998Z,35.39
2022-08-06T15:28:17.070Z,35.77
2022-08-06T15:30:47.019Z,36.95
2022-08-06T15:33:14.786Z,37.81
2022-08-06T15:35:57.176Z,37.65
2022-08-06T15:38:27.105Z,37.65
2022-08-06T15:40:55.120Z,37.42
2022-08-06T15:43:25.453Z,36.83
2022-08-06T15:45:58.202Z,36.43
2022-08-06T15:48:30.036Z,37.89
2022-08-06T15:51:28.663Z,37.59
2022-08-06T15:53:53.835Z,36.31
2022-08-06T15:56:33.665Z,35.49
2022-08-06T15:59:05.806Z,34.83
2022-08-06T16:01:51.824Z,34.08
2022-08-06T16:04:23.162Z,34.08
2022-08-06T16:06:51.558Z,36.00
2022-08-06T16:09:27.334Z,37.83
2022-08-06T16:11:59.141Z,39.04
2022-08-06T16:14:33.275Z,39.89
2022-08-06T16:17:10.052Z,40.13
2022-08-06T16:19:48.718Z,39.17
2022-08-06T16:22:18.382Z,37.56
2022-08-06T16:24:45.908Z,37.24
2022-08-06T16:27:14.933Z,37.59
2022-08-06T16:29:48.368Z,37.72
2022-08-06T16:32:21.293Z,37.15
2022-08-06T16:34:59.205Z,36.10
2022-08-06T16:40:18.228Z,34.63
2022-08-06T16:42:49.768Z,34.50
2022-08-06T16:45:19.245Z,34.49
2022-08-06T16:48:20.533Z,34.53
2022-08-06T16:50:41.710Z,34.26
2022-08-06T16:54:11.640Z,34.15
2022-08-06T16:56:01.206Z,33.50
2022-08-06T16:58:33.347Z,32.77
2022-08-06T17:02:15.327Z,32.40
2022-08-06T17:03:56.275Z,32.09
2022-08-06T17:06:26.920Z,31.81
2022-08-06T17:08:55.646Z,30.92
2022-08-06T17:11:46.477Z,30.44
2022-08-06T17:14:13.057Z,29.89
2022-08-06T17:16:41.057Z,29.76
2022-08-06T17:19:16.588Z,29.91
2022-08-06T17:21:58.006Z,29.98
2022-08-06T17:24:32.702Z,30.04
2022-08-06T17:27:44.515Z,29.81
2022-08-06T17:30:10.016Z,29.43
2022-08-06T17:32:46.299Z,29.50
2022-08-06T17:35:15.991Z,29.31
2022-08-06T17:37:46.102Z,29.21
2022-08-06T17:40:31.626Z,29.25
2022-08-06T17:42:28.511Z,35.33
2022-08-06T17:43:04.759Z,29.00
2022-08-06T17:45:52.223Z,28.71
2022-08-06T17:48:27.613Z,28.46
2022-08-06T17:50:58.787Z,28.13
2022-08-06T17:53:52.670Z,28.19
2022-08-06T17:56:30.282Z,28.23
2022-08-06T17:59:17.019Z,28.01
2022-08-06T18:01:49.590Z,27.86
2022-08-06T18:04:31.167Z,27.79
2022-08-06T18:07:12.259Z,27.65
2022-08-06T18:10:17.127Z,27.60
2022-08-06T18:12:49.047Z,27.87
2022-08-06T18:15:19.599Z,27.94
2022-08-06T18:18:04.434Z,27.90
2022-08-06T18:20:39.424Z,27.92
2022-08-06T18:23:20.541Z,28.48
2022-08-06T18:25:57.504Z,28.74
2022-08-06T18:28:39.691Z,28.43
2022-08-06T18:31:20.110Z,28.48
2022-08-06T18:33:53.469Z,28.15
2022-08-06T18:36:33.492Z,28.23
2022-08-06T18:39:01.648Z,28.58
2022-08-06T18:41:33.072Z,28.48
2022-08-06T18:44:01.586Z,28.10
2022-08-06T18:47:03.088Z,27.89
2022-08-06T18:49:32.205Z,27.67
2022-08-06T18:52:24.624Z,27.49
2022-08-06T18:55:00.567Z,27.35
2022-08-06T18:58:04.986Z,27.90
2022-08-06T19:00:33.478Z,28.16
2022-08-06T19:03:04.344Z,27.86
2022-08-06T19:05:44.958Z,27.71
2022-08-06T19:08:29.367Z,27.73
2022-08-06T19:11:06.040Z,27.30
2022-08-06T19:14:16.496Z,27.58
2022-08-06T19:16:25.921Z,27.42
2022-08-06T19:18:57.668Z,27.11
2022-08-06T19:21:27.538Z,27.35
2022-08-06T19:24:02.148Z,27.16
2022-08-06T19:26:33.826Z,27.10
2022-08-06T19:29:01.809Z,27.03
2022-08-06T19:31:41.951Z,26.90
2022-08-06T19:34:17.875Z,26.82
2022-08-06T19:36:49.555Z,26.78
2022-08-06T19:39:54.074Z,26.59
2022-08-06T19:42:13.414Z,26.34
2022-08-06T19:45:04.904Z,26.19
2022-08-06T19:47:47.154Z,26.15
2022-08-06T19:50:16.353Z,26.13
2022-08-06T19:52:46.926Z,26.24
2022-08-06T19:56:07.177Z,26.24
2022-08-06T19:58:26.545Z,26.26
2022-08-06T20:01:05.016Z,26.26
2022-08-06T20:03:42.993Z,26.55
2022-08-06T20:06:30.388Z,26.67
2022-08-06T20:09:07.849Z,26.71
2022-08-06T20:12:02.469Z,26.90
2022-08-06T20:14:31.763Z,26.89
2022-08-06T20:16:59.575Z,26.75
2022-08-06T20:20:06.692Z,26.70
2022-08-06T20:22:15.142Z,26.48
2022-08-06T20:24:43.131Z,26.50
2022-08-06T20:27:10.822Z,26.51
2022-08-06T20:30:04.666Z,26.57
2022-08-06T20:32:37.989Z,26.43
2022-08-06T20:35:09.757Z,26.02
2022-08-06T20:37:44.698Z,26.00
2022-08-06T20:40:19.458Z,25.80
2022-08-06T20:42:50.056Z,25.51
2022-08-06T20:45:23.682Z,25.37
2022-08-06T20:48:06.542Z,25.24
2022-08-06T20:50:34.477Z,25.26
2022-08-06T20:53:04.359Z,25.44
2022-08-06T20:55:41.619Z,25.30
2022-08-06T20:58:10.573Z,25.06
2022-08-06T21:00:39.256Z,25.06
2022-08-06T21:05:10.931Z,24.76
2022-08-06T21:05:53.785Z,24.78
2022-08-06T21:08:26.996Z,24.73
2022-08-06T21:11:00.670Z,24.76
2022-08-06T21:13:36.330Z,24.98
2022-08-06T21:16:34.148Z,25.19
2022-08-06T21:19:07.126Z,25.38
2022-08-06T21:21:37.129Z,25.55
2022-08-06T21:24:06.094Z,25.81
2022-08-06T21:26:35.862Z,25.66
2022-08-06T21:29:41.937Z,25.43
2022-08-06T21:31:58.241Z,25.08
2022-08-06T21:34:30.654Z,24.86
2022-08-06T21:37:00.949Z,24.40
2022-08-06T21:39:52.050Z,24.21
2022-08-06T21:42:17.843Z,24.21
2022-08-06T21:44:47.395Z,24.27
2022-08-06T21:47:19.589Z,24.31
2022-08-06T21:50:04.373Z,24.37
2022-08-06T21:52:35.947Z,24.42
2022-08-06T21:56:35.162Z,24.61
2022-08-06T21:58:02.640Z,24.48
2022-08-06T22:00:34.898Z,24.43
2022-08-06T22:03:07.160Z,24.35
2022-08-06T22:06:22.678Z,23.98
2022-08-06T22:08:34.866Z,23.63
2022-08-06T22:12:38.504Z,23.46
2022-08-06T22:14:01.258Z,23.20
2022-08-06T22:16:33.211Z,23.31
2022-08-06T22:19:02.548Z,23.38
2022-08-06T22:21:41.597Z,23.20
2022-08-06T22:24:18.553Z,23.09
2022-08-06T22:26:45.874Z,23.02
2022-08-06T22:29:18.209Z,23.17
2022-08-06T22:31:56.064Z,23.48
2022-08-06T22:34:25.913Z,23.62
2022-08-06T22:37:03.861Z,23.79
2022-08-06T22:39:34.566Z,24.13
2022-08-06T22:42:08.741Z,24.08
2022-08-06T22:45:12.982Z,24.02
2022-08-06T22:47:33.714Z,23.95
2022-08-06T22:50:11.261Z,23.86
2022-08-06T22:55:27.339Z,23.74
2022-08-06T22:58:47.727Z,23.77
2022-08-06T23:00:46.168Z,23.51
2022-08-06T23:03:15.736Z,23.41
2022-08-06T23:05:44.783Z,23.22
2022-08-06T23:08:16.358Z,23.27
2022-08-06T23:10:48.759Z,23.39
2022-08-06T23:13:25.909Z,23.44
2022-08-06T23:15:58.097Z,23.41
2022-08-06T23:18:30.517Z,23.49
2022-08-06T23:21:20.488Z,23.47
2022-08-06T23:23:53.981Z,23.44
2022-08-06T23:26:31.635Z,23.35
2022-08-06T23:29:08.828Z,23.54
2022-08-06T23:31:37.679Z,23.56
2022-08-06T23:34:09.759Z,23.28
2022-08-06T23:36:55.031Z,23.09
2022-08-06T23:39:38.302Z,23.09
2022-08-06T23:42:14.461Z,23.10
2022-08-06T23:44:51.703Z,23.19
2022-08-06T23:47:54.998Z,23.17
2022-08-06T23:50:11.250Z,23.21
2022-08-06T23:52:41.832Z,23.19
2022-08-06T23:55:25.683Z,23.14
2022-08-06T23:57:56.856Z,23.14
